Aérodrome :
LOGIN :

S'inscrire | Disclaimer

   EN    FR    IT 

 










Légende :    VFR   VFR Marginal   IFR   IFR Intensif   IFR Très Intensif
Visi : 
Plafond : 
>= 8 km
>= 3000ft
5 à 8 km
1000 à 3000 ft
1500m à 5 km
500 à 1000 ft
800 à 1500m
200 à 500 ft
< 800m
< 200 ft
Symboles :   Orages  Brouillard  Fortes neiges  Fortes précipitations  Vent > 20 kt
SIGMETs :   Divers  Orages  Givrage  Turbulence  Onde Orograph.  Cendres Volcan.






- Altitude de l'aérodrome : 348 ft
- Code IATA : LDV


LFRJ - Landivisiau

DERNIER METAR :
  • 240130Z AUTO 07010KT 4500 BR BKN007 03/03 Q1022

METARs EXPIRÉS :
  • 240100Z AUTO 06010KT 5000 BR OVC006 03/02 Q1023
  • 240030Z AUTO 07008KT 5000 BR OVC006 03/02 Q1023
  • 240000Z AUTO 07008KT 5000 BR BKN007 BKN200 03/02 Q1023
  • 232330Z AUTO 07008KT 5000 BR NSC 03/02 Q1023
  • 232300Z AUTO 07007KT 5000 BR NSC 03/02 Q1023

TAF TAF LFRJ
Valide du 23 à 21h jusqu'au 24 à 06h UTC


232000Z 2321/2406 07010KT 7000 NSC
PROB40
TEMPO 2321/2406 4000 BR



MET'MAP, la Météo Aéronautique d'un coup d'oeil ! - Copyright ORBIFLY Décembre 2007 - Disclaimer

ORBIFLY MET'MAP TEAM :

Programmation & Développement : Alexandra Zaïnal
Sur une idée originale de : Baudouin d'Aumeries
Assistance à la programmation : Marc-Olivier Méhu
Soutien technique & logistique : Manuel Goepfert

Contact : metmap@orbifly.com




SOURCES & CREDITS :

   NOAA